createdAt,value
2023-01-03T08:17:36.414Z,100.00
2023-01-03T08:20:39.006Z,100.00
2023-01-03T08:30:31.069Z,100.00
2023-01-03T08:42:53.245Z,100.00
2023-01-03T08:45:56.012Z,100.00
2023-01-03T08:56:21.254Z,100.00
2023-01-03T09:07:16.857Z,100.00
2023-01-03T09:17:22.145Z,100.00
2023-01-03T09:44:30.073Z,100.00
2023-01-03T09:47:38.076Z,100.00
2023-01-03T09:51:14.945Z,100.00
2023-01-03T09:54:24.215Z,100.00
2023-01-03T09:57:48.750Z,100.00
2023-01-03T10:01:14.072Z,100.00
2023-01-03T10:04:50.183Z,100.00
2023-01-03T10:08:09.052Z,100.00
2023-01-03T10:11:19.817Z,100.00
2023-01-03T10:14:34.765Z,100.00
2023-01-03T10:17:48.418Z,100.00
2023-01-03T10:20:53.977Z,98.60
2023-01-03T10:23:57.007Z,98.70
2023-01-03T10:27:08.318Z,97.34
2023-01-03T10:30:16.015Z,97.95
2023-01-03T10:33:30.129Z,96.93
2023-01-03T10:36:32.706Z,95.89
2023-01-03T10:39:36.267Z,94.04
2023-01-03T10:42:40.651Z,95.26
2023-01-03T10:45:54.417Z,95.08
2023-01-03T10:49:31.108Z,94.82
2023-01-03T10:52:38.182Z,96.52
2023-01-03T10:55:46.818Z,95.22
2023-01-03T10:58:49.352Z,93.24
2023-01-03T11:01:57.865Z,94.77
2023-01-03T11:05:12.596Z,94.75
2023-01-03T11:08:22.143Z,93.77
2023-01-03T11:11:29.722Z,92.97
2023-01-03T11:14:32.343Z,95.26
2023-01-03T11:17:35.621Z,94.56
2023-01-03T11:20:44.753Z,94.99
2023-01-03T11:24:08.926Z,94.23
2023-01-03T11:27:23.583Z,93.12
2023-01-03T11:30:33.532Z,93.50
2023-01-03T11:33:56.520Z,93.08
2023-01-03T11:37:09.154Z,92.58
2023-01-03T11:40:22.781Z,92.92
2023-01-03T11:43:39.156Z,94.25
2023-01-03T11:46:55.863Z,93.67
2023-01-03T11:50:12.741Z,94.34
2023-01-03T11:53:33.123Z,94.64
2023-01-03T11:56:39.001Z,94.87
2023-01-03T12:00:02.867Z,94.78
2023-01-03T12:03:10.403Z,95.00
2023-01-03T12:06:28.482Z,96.03
2023-01-03T12:09:39.833Z,95.82
2023-01-03T12:12:58.528Z,94.61
2023-01-03T12:16:08.651Z,92.78
2023-01-03T12:19:24.033Z,92.28
2023-01-03T12:22:35.357Z,90.79
2023-01-03T12:25:44.671Z,93.02
2023-01-03T12:28:53.281Z,93.79
2023-01-03T12:32:04.022Z,90.78
2023-01-03T12:35:27.565Z,90.07
2023-01-03T12:38:32.895Z,90.88
2023-01-03T12:41:43.161Z,91.59
2023-01-03T12:44:47.520Z,91.53
2023-01-03T12:48:00.101Z,91.46
2023-01-03T12:51:02.596Z,93.11
2023-01-03T12:54:16.955Z,91.53
2023-01-03T12:57:42.427Z,91.20
2023-01-03T13:00:57.089Z,91.25
2023-01-03T13:04:07.831Z,91.54
2023-01-03T13:07:15.844Z,91.86
2023-01-03T13:10:21.133Z,90.98
2023-01-03T13:13:25.135Z,90.94
2023-01-03T13:16:45.671Z,88.80
2023-01-03T13:19:58.655Z,90.67
2023-01-03T13:23:02.036Z,88.16
2023-01-03T13:26:22.871Z,88.59
2023-01-03T13:29:44.168Z,85.29
2023-01-03T13:32:55.480Z,84.31
2023-01-03T13:36:00.572Z,83.26
2023-01-03T13:39:23.092Z,84.46
2023-01-03T13:42:29.940Z,83.96
2023-01-03T13:46:02.613Z,84.46
2023-01-03T13:49:07.801Z,84.01
2023-01-03T13:52:37.285Z,83.76
2023-01-03T13:55:49.191Z,83.95
2023-01-03T13:59:02.325Z,84.74
2023-01-03T14:02:44.621Z,83.62
2023-01-03T14:06:23.737Z,83.33
2023-01-03T14:09:54.119Z,83.89
2023-01-03T14:13:11.680Z,83.12
2023-01-03T14:16:20.610Z,84.28
2023-01-03T14:19:29.077Z,83.59
2023-01-03T14:22:37.974Z,84.05
2023-01-03T14:25:42.754Z,83.40
2023-01-03T14:28:50.160Z,83.75
2023-01-03T14:31:55.818Z,84.87
2023-01-03T14:34:59.822Z,86.22
2023-01-03T14:38:06.803Z,87.91
2023-01-03T14:41:31.898Z,89.69
2023-01-03T14:44:35.788Z,91.41
2023-01-03T14:47:40.053Z,91.73
2023-01-03T14:50:44.356Z,91.17
2023-01-03T14:53:46.953Z,91.24
2023-01-03T14:56:49.840Z,92.45
2023-01-03T14:59:53.480Z,92.35
2023-01-03T15:02:57.192Z,92.42
2023-01-03T15:06:02.395Z,92.37
2023-01-03T15:09:22.275Z,91.57
2023-01-03T15:12:25.066Z,91.89
2023-01-03T15:15:30.262Z,92.54
2023-01-03T15:18:35.122Z,93.36
2023-01-03T15:21:39.519Z,93.93
2023-01-03T15:24:44.332Z,96.31
2023-01-03T15:27:48.809Z,98.33
2023-01-03T15:30:53.561Z,99.26
2023-01-03T15:34:00.618Z,99.82
2023-01-03T15:37:12.755Z,99.58
2023-01-03T15:40:15.354Z,99.80
2023-01-03T15:43:22.060Z,100.00
2023-01-03T15:46:27.778Z,100.00
2023-01-03T15:49:32.224Z,100.00
2023-01-03T15:52:36.076Z,100.00
2023-01-03T15:55:39.017Z,100.00
2023-01-03T15:58:42.000Z,100.00
2023-01-03T16:01:44.580Z,100.00
2023-01-03T16:04:49.019Z,100.00
2023-01-03T16:07:52.879Z,100.00
2023-01-03T16:10:56.296Z,100.00
2023-01-03T16:14:01.865Z,100.00
2023-01-03T16:17:05.857Z,100.00
2023-01-03T16:20:15.889Z,100.00
2023-01-03T16:23:25.500Z,100.00
2023-01-03T16:26:27.977Z,100.00
2023-01-03T16:29:30.432Z,100.00
2023-01-03T16:32:34.104Z,100.00
2023-01-03T16:35:36.869Z,100.00
2023-01-03T16:38:40.678Z,100.00
2023-01-03T16:41:43.321Z,100.00
2023-01-03T16:44:48.258Z,100.00
2023-01-03T16:47:51.825Z,100.00
2023-01-03T16:50:55.601Z,100.00
2023-01-03T16:54:00.479Z,100.00
2023-01-03T16:57:03.019Z,100.00
2023-01-03T17:00:17.109Z,100.00
2023-01-03T17:03:20.385Z,100.00
2023-01-03T17:06:33.451Z,100.00
2023-01-03T17:09:41.239Z,100.00
2023-01-03T17:12:43.764Z,100.00
2023-01-03T17:15:46.297Z,100.00
2023-01-03T17:18:49.350Z,100.00
2023-01-03T17:21:52.345Z,100.00
2023-01-03T17:24:57.281Z,100.00
2023-01-03T17:28:00.868Z,100.00
2023-01-03T17:31:03.421Z,100.00
2023-01-03T17:34:21.265Z,100.00
2023-01-03T17:37:24.326Z,100.00
2023-01-03T17:40:33.663Z,100.00
2023-01-03T17:43:37.461Z,100.00
2023-01-03T17:46:57.557Z,100.00
2023-01-03T17:50:01.165Z,100.00
2023-01-03T17:53:03.782Z,100.00
2023-01-03T17:56:07.929Z,100.00
2023-01-03T17:59:14.707Z,100.00
2023-01-03T18:02:21.162Z,100.00
2023-01-03T18:05:28.581Z,100.00
2023-01-03T18:08:31.605Z,100.00
2023-01-03T18:11:35.694Z,100.00
2023-01-03T18:14:38.243Z,100.00
2023-01-03T18:17:40.807Z,100.00
2023-01-03T18:20:43.399Z,100.00
2023-01-03T18:23:46.997Z,100.00
2023-01-03T18:26:53.677Z,100.00
2023-01-03T18:29:56.287Z,100.00
2023-01-03T18:32:58.851Z,100.00
2023-01-03T18:36:01.695Z,100.00
2023-01-03T18:39:07.664Z,100.00
2023-01-03T18:42:30.980Z,100.00
2023-01-03T18:45:34.236Z,100.00
2023-01-03T18:48:36.731Z,100.00
2023-01-03T18:51:39.270Z,100.00
2023-01-03T18:54:41.851Z,100.00
2023-01-03T18:57:47.263Z,100.00
2023-01-03T19:00:49.729Z,100.00
2023-01-03T19:03:52.374Z,100.00
2023-01-03T19:06:54.935Z,100.00
2023-01-03T19:09:57.518Z,100.00
2023-01-03T19:13:01.349Z,100.00
2023-01-03T19:16:03.873Z,100.00
2023-01-03T19:19:07.820Z,100.00
2023-01-03T19:22:22.580Z,100.00
2023-01-03T19:25:27.887Z,100.00
2023-01-03T19:28:32.573Z,100.00
2023-01-03T19:31:41.460Z,100.00
2023-01-03T19:34:44.535Z,100.00
2023-01-03T19:37:47.182Z,100.00
2023-01-03T19:40:50.242Z,100.00
2023-01-03T19:43:54.043Z,100.00
2023-01-03T19:46:56.609Z,100.00
2023-01-03T19:50:06.347Z,100.00
2023-01-03T19:53:13.807Z,100.00
2023-01-03T19:56:23.491Z,100.00
2023-01-03T19:59:30.861Z,100.00
2023-01-03T20:02:39.197Z,100.00
2023-01-03T20:05:42.017Z,100.00
2023-01-03T20:08:44.628Z,100.00
2023-01-03T20:11:53.008Z,100.00
2023-01-03T20:15:02.852Z,100.00
2023-01-03T20:18:23.793Z,100.00
2023-01-03T20:21:30.173Z,100.00
2023-01-03T20:24:34.545Z,100.00
2023-01-03T20:27:44.322Z,100.00
2023-01-03T20:30:48.486Z,100.00
2023-01-03T20:33:52.066Z,100.00
2023-01-03T20:36:55.703Z,100.00
2023-01-03T20:39:58.379Z,100.00
2023-01-03T20:43:02.138Z,100.00
2023-01-03T20:46:06.508Z,100.00
2023-01-03T20:49:15.852Z,100.00
2023-01-03T20:52:19.508Z,100.00
2023-01-03T20:55:25.224Z,100.00
2023-01-03T20:58:27.929Z,100.00
2023-01-03T21:01:32.321Z,100.00
2023-01-03T21:04:34.902Z,100.00
2023-01-03T21:07:51.550Z,100.00
2023-01-03T21:10:54.386Z,100.00
2023-01-03T21:13:57.943Z,100.00
2023-01-03T21:17:02.000Z,100.00
2023-01-03T21:20:04.921Z,100.00
2023-01-03T21:23:07.744Z,100.00
2023-01-03T21:26:10.300Z,100.00
2023-01-03T21:29:13.038Z,100.00
2023-01-03T21:32:16.906Z,100.00
2023-01-03T21:35:22.217Z,100.00
2023-01-03T21:38:24.916Z,100.00
2023-01-03T21:41:29.376Z,100.00
2023-01-03T21:44:31.839Z,100.00
2023-01-03T21:47:35.736Z,100.00
2023-01-03T21:50:40.033Z,100.00
2023-01-03T21:53:43.507Z,100.00
2023-01-03T21:56:46.706Z,100.00
2023-01-03T21:59:49.627Z,100.00
2023-01-03T22:03:11.114Z,100.00
2023-01-03T22:06:14.849Z,100.00
2023-01-03T22:09:31.554Z,100.00
2023-01-03T22:12:34.137Z,100.00
2023-01-03T22:15:37.719Z,100.00
2023-01-03T22:18:41.775Z,100.00
2023-01-03T22:21:44.375Z,100.00
2023-01-03T22:24:46.910Z,100.00
2023-01-03T22:27:49.758Z,100.00
2023-01-03T22:30:52.244Z,100.00
2023-01-03T22:33:56.076Z,100.00
2023-01-03T22:36:58.551Z,100.00
2023-01-03T22:40:01.042Z,100.00
2023-01-03T22:43:03.556Z,100.00
2023-01-03T22:46:07.382Z,100.00
2023-01-03T22:49:11.426Z,100.00
2023-01-03T22:52:13.882Z,100.00
2023-01-03T22:55:16.560Z,100.00
2023-01-03T22:58:19.104Z,100.00
2023-01-03T23:01:27.488Z,100.00
2023-01-03T23:04:32.130Z,100.00
2023-01-03T23:07:34.628Z,100.00
2023-01-03T23:10:37.170Z,100.00
2023-01-03T23:13:39.219Z,100.00
2023-01-03T23:16:42.454Z,100.00
2023-01-03T23:19:46.641Z,100.00
2023-01-03T23:22:54.044Z,100.00
2023-01-03T23:26:02.096Z,100.00
2023-01-03T23:29:04.576Z,100.00
2023-01-03T23:32:07.078Z,100.00
2023-01-03T23:35:11.919Z,100.00
2023-01-03T23:38:14.425Z,100.00
2023-01-03T23:41:17.232Z,100.00
2023-01-03T23:44:20.060Z,100.00
2023-01-03T23:47:22.545Z,100.00
2023-01-03T23:50:26.391Z,100.00
2023-01-03T23:53:28.924Z,100.00
2023-01-03T23:56:31.520Z,100.00
2023-01-03T23:59:34.027Z,100.00
